sensor_id;sensor_type;location;lat;lon;timestamp;temperature;humidity
796;DHT22;381;48.770;9.188;2023-11-22T00:00:47;10.60;99.90
796;DHT22;381;48.770;9.188;2023-11-22T00:05:50;10.60;99.90
796;DHT22;381;48.770;9.188;2023-11-22T00:10:52;10.50;99.90
796;DHT22;381;48.770;9.188;2023-11-22T00:15:56;10.50;99.90
796;DHT22;381;48.770;9.188;2023-11-22T00:20:58;10.30;99.90
796;DHT22;381;48.770;9.188;2023-11-22T00:26:01;10.00;99.90
796;DHT22;381;48.770;9.188;2023-11-22T00:31:04;9.80;99.90
796;DHT22;381;48.770;9.188;2023-11-22T00:36:07;9.60;99.90
796;DHT22;381;48.770;9.188;2023-11-22T00:41:10;9.50;99.90
796;DHT22;381;48.770;9.188;2023-11-22T00:46:14;9.40;99.90
796;DHT22;381;48.770;9.188;2023-11-22T00:51:16;9.20;99.90
796;DHT22;381;48.770;9.188;2023-11-22T00:56:20;9.20;99.90
796;DHT22;381;48.770;9.188;2023-11-22T01:01:23;9.10;99.90
796;DHT22;381;48.770;9.188;2023-11-22T01:06:26;9.10;99.90
796;DHT22;381;48.770;9.188;2023-11-22T01:11:28;9.00;99.90
796;DHT22;381;48.770;9.188;2023-11-22T01:16:32;9.00;99.90
796;DHT22;381;48.770;9.188;2023-11-22T01:21:34;8.90;99.90
796;DHT22;381;48.770;9.188;2023-11-22T01:26:36;8.90;99.90
796;DHT22;381;48.770;9.188;2023-11-22T01:31:40;8.80;99.90
796;DHT22;381;48.770;9.188;2023-11-22T01:36:44;8.70;99.90
796;DHT22;381;48.770;9.188;2023-11-22T01:41:47;8.70;99.90
796;DHT22;381;48.770;9.188;2023-11-22T01:46:52;8.70;99.90
796;DHT22;381;48.770;9.188;2023-11-22T01:51:55;8.70;99.90
796;DHT22;381;48.770;9.188;2023-11-22T01:56:58;8.60;99.90
796;DHT22;381;48.770;9.188;2023-11-22T02:02:03;8.60;99.90
796;DHT22;381;48.770;9.188;2023-11-22T02:12:08;8.40;99.90
796;DHT22;381;48.770;9.188;2023-11-22T02:17:12;8.30;99.90
796;DHT22;381;48.770;9.188;2023-11-22T02:22:15;8.20;99.90
796;DHT22;381;48.770;9.188;2023-11-22T02:27:20;8.20;99.90
796;DHT22;381;48.770;9.188;2023-11-22T02:32:23;8.20;99.90
796;DHT22;381;48.770;9.188;2023-11-22T02:37:26;8.10;99.90
796;DHT22;381;48.770;9.188;2023-11-22T02:42:30;8.10;99.90
796;DHT22;381;48.770;9.188;2023-11-22T02:47:33;8.10;99.90
796;DHT22;381;48.770;9.188;2023-11-22T02:52:35;8.10;99.90
796;DHT22;381;48.770;9.188;2023-11-22T02:57:40;8.10;99.90
796;DHT22;381;48.770;9.188;2023-11-22T03:02:42;8.10;99.90
796;DHT22;381;48.770;9.188;2023-11-22T03:07:47;8.10;99.90
796;DHT22;381;48.770;9.188;2023-11-22T03:12:53;8.00;99.90
796;DHT22;381;48.770;9.188;2023-11-22T03:17:56;7.90;99.90
796;DHT22;381;48.770;9.188;2023-11-22T03:23:00;7.90;99.90
796;DHT22;381;48.770;9.188;2023-11-22T03:28:05;7.80;99.90
796;DHT22;381;48.770;9.188;2023-11-22T03:33:08;7.80;99.90
796;DHT22;381;48.770;9.188;2023-11-22T03:38:11;7.80;99.90
796;DHT22;381;48.770;9.188;2023-11-22T03:43:15;7.70;99.90
796;DHT22;381;48.770;9.188;2023-11-22T03:48:17;7.70;99.90
796;DHT22;381;48.770;9.188;2023-11-22T03:53:19;7.60;99.90
796;DHT22;381;48.770;9.188;2023-11-22T03:58:24;7.60;99.90
796;DHT22;381;48.770;9.188;2023-11-22T04:03:26;7.60;99.90
796;DHT22;381;48.770;9.188;2023-11-22T04:08:29;7.70;99.90
796;DHT22;381;48.770;9.188;2023-11-22T04:13:34;7.70;99.90
796;DHT22;381;48.770;9.188;2023-11-22T04:18:36;7.70;99.90
796;DHT22;381;48.770;9.188;2023-11-22T04:23:38;7.70;99.90
796;DHT22;381;48.770;9.188;2023-11-22T04:28:42;7.70;99.90
796;DHT22;381;48.770;9.188;2023-11-22T04:33:44;7.80;99.90
796;DHT22;381;48.770;9.188;2023-11-22T04:38:49;7.80;99.90
796;DHT22;381;48.770;9.188;2023-11-22T04:43:53;7.80;99.90
796;DHT22;381;48.770;9.188;2023-11-22T04:48:55;7.80;99.90
796;DHT22;381;48.770;9.188;2023-11-22T04:53:58;7.80;99.90
796;DHT22;381;48.770;9.188;2023-11-22T04:59:02;7.80;99.90
796;DHT22;381;48.770;9.188;2023-11-22T05:04:05;7.80;99.90
796;DHT22;381;48.770;9.188;2023-11-22T05:09:07;7.80;99.90
796;DHT22;381;48.770;9.188;2023-11-22T05:14:12;7.70;99.90
796;DHT22;381;48.770;9.188;2023-11-22T05:19:14;7.70;99.90
796;DHT22;381;48.770;9.188;2023-11-22T05:24:17;7.70;99.90
796;DHT22;381;48.770;9.188;2023-11-22T05:29:20;7.60;99.90
796;DHT22;381;48.770;9.188;2023-11-22T05:34:23;7.70;99.90
796;DHT22;381;48.770;9.188;2023-11-22T05:39:25;7.70;99.90
796;DHT22;381;48.770;9.188;2023-11-22T05:44:29;7.70;99.90
796;DHT22;381;48.770;9.188;2023-11-22T05:49:31;7.70;99.90
796;DHT22;381;48.770;9.188;2023-11-22T05:54:33;7.60;99.90
796;DHT22;381;48.770;9.188;2023-11-22T05:59:37;7.60;99.90
796;DHT22;381;48.770;9.188;2023-11-22T06:04:40;7.60;99.90
796;DHT22;381;48.770;9.188;2023-11-22T06:09:42;7.60;99.90
796;DHT22;381;48.770;9.188;2023-11-22T06:14:47;7.60;99.90
796;DHT22;381;48.770;9.188;2023-11-22T06:19:49;7.60;99.90
796;DHT22;381;48.770;9.188;2023-11-22T06:24:51;7.60;99.90
796;DHT22;381;48.770;9.188;2023-11-22T06:29:55;7.60;99.90
796;DHT22;381;48.770;9.188;2023-11-22T06:34:58;7.50;99.90
796;DHT22;381;48.770;9.188;2023-11-22T06:40:01;7.50;99.90
796;DHT22;381;48.770;9.188;2023-11-22T06:45:06;7.50;99.90
796;DHT22;381;48.770;9.188;2023-11-22T06:50:11;7.50;99.90
796;DHT22;381;48.770;9.188;2023-11-22T06:55:13;7.40;99.90
796;DHT22;381;48.770;9.188;2023-11-22T07:00:17;7.50;99.90
796;DHT22;381;48.770;9.188;2023-11-22T07:05:21;7.50;99.90
796;DHT22;381;48.770;9.188;2023-11-22T07:10:23;7.40;99.90
796;DHT22;381;48.770;9.188;2023-11-22T07:15:27;7.40;99.90
796;DHT22;381;48.770;9.188;2023-11-22T07:20:30;7.40;99.90
796;DHT22;381;48.770;9.188;2023-11-22T07:25:32;7.40;99.90
796;DHT22;381;48.770;9.188;2023-11-22T07:30:36;7.40;99.90
796;DHT22;381;48.770;9.188;2023-11-22T07:35:42;7.30;99.90
796;DHT22;381;48.770;9.188;2023-11-22T07:40:44;7.30;99.90
796;DHT22;381;48.770;9.188;2023-11-22T07:45:48;7.20;99.90
796;DHT22;381;48.770;9.188;2023-11-22T07:50:52;7.20;99.90
796;DHT22;381;48.770;9.188;2023-11-22T07:55:55;7.10;99.90
796;DHT22;381;48.770;9.188;2023-11-22T08:01:00;7.20;99.90
796;DHT22;381;48.770;9.188;2023-11-22T08:06:07;7.20;99.90
796;DHT22;381;48.770;9.188;2023-11-22T08:11:10;7.10;99.90
796;DHT22;381;48.770;9.188;2023-11-22T08:16:17;7.00;99.90
796;DHT22;381;48.770;9.188;2023-11-22T08:21:21;7.00;99.90
796;DHT22;381;48.770;9.188;2023-11-22T08:26:24;6.90;99.90
796;DHT22;381;48.770;9.188;2023-11-22T08:31:28;7.00;99.90
796;DHT22;381;48.770;9.188;2023-11-22T08:36:31;6.90;99.90
796;DHT22;381;48.770;9.188;2023-11-22T08:41:35;6.90;99.90
796;DHT22;381;48.770;9.188;2023-11-22T08:46:43;6.90;99.90
796;DHT22;381;48.770;9.188;2023-11-22T08:51:47;6.90;99.90
796;DHT22;381;48.770;9.188;2023-11-22T08:56:49;6.80;99.90
796;DHT22;381;48.770;9.188;2023-11-22T09:01:53;6.80;99.90
796;DHT22;381;48.770;9.188;2023-11-22T09:06:55;6.80;99.90
796;DHT22;381;48.770;9.188;2023-11-22T09:11:58;6.90;99.90
796;DHT22;381;48.770;9.188;2023-11-22T09:17:02;6.90;99.90
796;DHT22;381;48.770;9.188;2023-11-22T09:22:06;6.90;99.90
796;DHT22;381;48.770;9.188;2023-11-22T09:27:09;6.90;99.90
796;DHT22;381;48.770;9.188;2023-11-22T09:32:17;7.00;99.90
796;DHT22;381;48.770;9.188;2023-11-22T09:37:20;7.00;99.90
796;DHT22;381;48.770;9.188;2023-11-22T09:42:22;7.10;99.90
796;DHT22;381;48.770;9.188;2023-11-22T09:47:27;7.10;99.90
796;DHT22;381;48.770;9.188;2023-11-22T09:52:33;7.10;99.90
796;DHT22;381;48.770;9.188;2023-11-22T09:57:39;7.10;99.90
796;DHT22;381;48.770;9.188;2023-11-22T10:02:42;7.10;99.90
796;DHT22;381;48.770;9.188;2023-11-22T10:07:46;7.10;99.90
796;DHT22;381;48.770;9.188;2023-11-22T10:12:49;7.10;99.90
796;DHT22;381;48.770;9.188;2023-11-22T10:17:57;7.20;99.90
796;DHT22;381;48.770;9.188;2023-11-22T10:23:00;7.10;99.90
796;DHT22;381;48.770;9.188;2023-11-22T10:28:02;7.10;99.90
796;DHT22;381;48.770;9.188;2023-11-22T10:33:06;7.10;99.90
796;DHT22;381;48.770;9.188;2023-11-22T10:38:09;7.10;99.90
796;DHT22;381;48.770;9.188;2023-11-22T10:43:12;7.20;99.90
796;DHT22;381;48.770;9.188;2023-11-22T10:48:16;7.20;99.90
796;DHT22;381;48.770;9.188;2023-11-22T10:53:21;7.30;99.90
796;DHT22;381;48.770;9.188;2023-11-22T10:58:28;7.40;99.90
796;DHT22;381;48.770;9.188;2023-11-22T11:03:37;7.40;99.90
796;DHT22;381;48.770;9.188;2023-11-22T11:08:44;7.50;99.90
796;DHT22;381;48.770;9.188;2023-11-22T11:13:47;7.60;99.90
796;DHT22;381;48.770;9.188;2023-11-22T11:18:53;7.60;99.90
796;DHT22;381;48.770;9.188;2023-11-22T11:23:56;7.50;99.90
796;DHT22;381;48.770;9.188;2023-11-22T11:29:03;7.40;99.90
796;DHT22;381;48.770;9.188;2023-11-22T11:34:08;7.40;99.90
796;DHT22;381;48.770;9.188;2023-11-22T11:39:13;7.40;99.90
796;DHT22;381;48.770;9.188;2023-11-22T11:44:17;7.40;99.90
796;DHT22;381;48.770;9.188;2023-11-22T11:49:22;7.40;99.90
796;DHT22;381;48.770;9.188;2023-11-22T11:54:24;7.40;99.90
796;DHT22;381;48.770;9.188;2023-11-22T11:59:27;7.40;99.90
796;DHT22;381;48.770;9.188;2023-11-22T12:04:32;7.30;99.90
796;DHT22;381;48.770;9.188;2023-11-22T12:09:34;7.30;99.90
796;DHT22;381;48.770;9.188;2023-11-22T12:14:37;7.30;99.90
796;DHT22;381;48.770;9.188;2023-11-22T12:19:41;7.30;99.90
796;DHT22;381;48.770;9.188;2023-11-22T12:24:43;7.30;99.90
796;DHT22;381;48.770;9.188;2023-11-22T12:29:46;7.30;99.90
796;DHT22;381;48.770;9.188;2023-11-22T12:34:50;7.30;99.90
796;DHT22;381;48.770;9.188;2023-11-22T12:39:55;7.30;99.90
796;DHT22;381;48.770;9.188;2023-11-22T12:44:57;7.30;99.90
796;DHT22;381;48.770;9.188;2023-11-22T12:50:01;7.30;99.90
796;DHT22;381;48.770;9.188;2023-11-22T12:55:04;7.30;99.90
796;DHT22;381;48.770;9.188;2023-11-22T13:00:10;7.40;99.90
796;DHT22;381;48.770;9.188;2023-11-22T13:05:14;7.30;99.90
796;DHT22;381;48.770;9.188;2023-11-22T13:10:18;7.40;99.90
796;DHT22;381;48.770;9.188;2023-11-22T13:15:25;7.30;99.90
796;DHT22;381;48.770;9.188;2023-11-22T13:20:29;7.30;99.90
796;DHT22;381;48.770;9.188;2023-11-22T13:25:32;7.30;99.90
796;DHT22;381;48.770;9.188;2023-11-22T13:30:34;7.40;99.90
796;DHT22;381;48.770;9.188;2023-11-22T13:35:38;7.40;99.90
796;DHT22;381;48.770;9.188;2023-11-22T13:40:41;7.30;99.90
796;DHT22;381;48.770;9.188;2023-11-22T13:45:46;7.30;99.90
796;DHT22;381;48.770;9.188;2023-11-22T13:50:50;7.30;99.90
796;DHT22;381;48.770;9.188;2023-11-22T13:55:52;7.20;99.90
796;DHT22;381;48.770;9.188;2023-11-22T14:00:56;7.20;99.90
796;DHT22;381;48.770;9.188;2023-11-22T14:06:01;7.20;99.90
796;DHT22;381;48.770;9.188;2023-11-22T14:11:05;7.20;99.90
796;DHT22;381;48.770;9.188;2023-11-22T14:16:08;7.30;99.90
796;DHT22;381;48.770;9.188;2023-11-22T14:21:12;7.30;99.90
796;DHT22;381;48.770;9.188;2023-11-22T14:26:14;7.30;99.90
796;DHT22;381;48.770;9.188;2023-11-22T14:31:17;7.20;99.90
796;DHT22;381;48.770;9.188;2023-11-22T14:36:20;7.20;99.90
796;DHT22;381;48.770;9.188;2023-11-22T14:41:23;7.20;99.90
796;DHT22;381;48.770;9.188;2023-11-22T14:46:25;7.20;99.90
796;DHT22;381;48.770;9.188;2023-11-22T14:51:29;7.20;99.90
796;DHT22;381;48.770;9.188;2023-11-22T14:56:31;7.20;99.90
796;DHT22;381;48.770;9.188;2023-11-22T15:01:34;7.10;99.90
796;DHT22;381;48.770;9.188;2023-11-22T15:06:38;7.10;99.90
796;DHT22;381;48.770;9.188;2023-11-22T15:11:41;7.10;99.90
796;DHT22;381;48.770;9.188;2023-11-22T15:16:43;7.10;99.90
796;DHT22;381;48.770;9.188;2023-11-22T15:21:47;7.10;99.70
796;DHT22;381;48.770;9.188;2023-11-22T15:26:50;7.10;99.00
796;DHT22;381;48.770;9.188;2023-11-22T15:31:52;7.00;99.90
796;DHT22;381;48.770;9.188;2023-11-22T15:36:56;6.90;98.90
796;DHT22;381;48.770;9.188;2023-11-22T15:41:59;6.80;99.80
796;DHT22;381;48.770;9.188;2023-11-22T15:47:01;6.80;99.90
796;DHT22;381;48.770;9.188;2023-11-22T15:52:10;6.80;99.90
796;DHT22;381;48.770;9.188;2023-11-22T15:57:13;6.90;99.90
796;DHT22;381;48.770;9.188;2023-11-22T16:02:16;6.90;99.90
796;DHT22;381;48.770;9.188;2023-11-22T16:07:19;6.90;99.90
796;DHT22;381;48.770;9.188;2023-11-22T16:12:22;6.90;99.90
796;DHT22;381;48.770;9.188;2023-11-22T16:17:25;6.90;99.90
796;DHT22;381;48.770;9.188;2023-11-22T16:22:28;7.00;99.90
796;DHT22;381;48.770;9.188;2023-11-22T16:27:31;7.00;99.90
796;DHT22;381;48.770;9.188;2023-11-22T16:32:33;7.00;99.90
796;DHT22;381;48.770;9.188;2023-11-22T16:37:38;7.00;99.90
796;DHT22;381;48.770;9.188;2023-11-22T16:42:41;7.00;99.90
796;DHT22;381;48.770;9.188;2023-11-22T16:47:44;7.00;99.90
796;DHT22;381;48.770;9.188;2023-11-22T16:52:49;7.00;99.90
796;DHT22;381;48.770;9.188;2023-11-22T16:57:52;7.10;99.90
796;DHT22;381;48.770;9.188;2023-11-22T17:02:54;7.00;99.90
796;DHT22;381;48.770;9.188;2023-11-22T17:08:01;7.00;99.90
796;DHT22;381;48.770;9.188;2023-11-22T17:13:05;7.00;99.90
796;DHT22;381;48.770;9.188;2023-11-22T17:18:07;7.00;99.90
796;DHT22;381;48.770;9.188;2023-11-22T17:23:11;7.00;99.90
796;DHT22;381;48.770;9.188;2023-11-22T17:28:14;7.00;99.90
796;DHT22;381;48.770;9.188;2023-11-22T17:33:16;7.00;99.90
796;DHT22;381;48.770;9.188;2023-11-22T17:38:20;7.00;99.90
796;DHT22;381;48.770;9.188;2023-11-22T17:43:22;6.90;99.90
796;DHT22;381;48.770;9.188;2023-11-22T17:48:25;6.90;99.90
796;DHT22;381;48.770;9.188;2023-11-22T17:53:29;6.90;99.70
796;DHT22;381;48.770;9.188;2023-11-22T17:58:31;6.90;98.90
796;DHT22;381;48.770;9.188;2023-11-22T18:03:35;6.90;99.80
796;DHT22;381;48.770;9.188;2023-11-22T18:08:39;6.90;99.80
796;DHT22;381;48.770;9.188;2023-11-22T18:13:41;6.90;98.80
796;DHT22;381;48.770;9.188;2023-11-22T18:18:44;6.90;98.80
796;DHT22;381;48.770;9.188;2023-11-22T18:23:48;6.80;99.40
796;DHT22;381;48.770;9.188;2023-11-22T18:28:51;6.80;99.30
796;DHT22;381;48.770;9.188;2023-11-22T18:33:53;6.80;99.60
796;DHT22;381;48.770;9.188;2023-11-22T18:38:57;6.80;99.70
796;DHT22;381;48.770;9.188;2023-11-22T18:44:00;6.90;98.90
796;DHT22;381;48.770;9.188;2023-11-22T18:49:02;6.80;99.80
796;DHT22;381;48.770;9.188;2023-11-22T18:54:06;6.80;99.70
796;DHT22;381;48.770;9.188;2023-11-22T18:59:11;6.80;99.60
796;DHT22;381;48.770;9.188;2023-11-22T19:04:14;6.80;98.90
796;DHT22;381;48.770;9.188;2023-11-22T19:09:18;6.80;99.20
796;DHT22;381;48.770;9.188;2023-11-22T19:14:21;6.80;99.10
796;DHT22;381;48.770;9.188;2023-11-22T19:19:26;6.80;99.50
796;DHT22;381;48.770;9.188;2023-11-22T19:24:30;6.70;99.20
796;DHT22;381;48.770;9.188;2023-11-22T19:29:32;6.70;99.50
796;DHT22;381;48.770;9.188;2023-11-22T19:34:35;6.70;99.90
796;DHT22;381;48.770;9.188;2023-11-22T19:39:39;6.70;99.10
796;DHT22;381;48.770;9.188;2023-11-22T19:44:42;6.70;98.20
796;DHT22;381;48.770;9.188;2023-11-22T19:49:44;6.70;98.60
796;DHT22;381;48.770;9.188;2023-11-22T19:54:48;6.70;99.20
796;DHT22;381;48.770;9.188;2023-11-22T19:59:50;6.70;99.00
796;DHT22;381;48.770;9.188;2023-11-22T20:04:53;6.70;99.40
796;DHT22;381;48.770;9.188;2023-11-22T20:09:56;6.70;99.60
796;DHT22;381;48.770;9.188;2023-11-22T20:14:59;6.70;99.90
796;DHT22;381;48.770;9.188;2023-11-22T20:20:02;6.70;99.40
796;DHT22;381;48.770;9.188;2023-11-22T20:25:07;6.70;98.90
796;DHT22;381;48.770;9.188;2023-11-22T20:30:11;6.70;99.90
796;DHT22;381;48.770;9.188;2023-11-22T20:35:13;6.70;99.20
796;DHT22;381;48.770;9.188;2023-11-22T20:40:17;6.60;99.10
796;DHT22;381;48.770;9.188;2023-11-22T20:45:20;6.60;99.60
796;DHT22;381;48.770;9.188;2023-11-22T20:50:23;6.60;99.70
796;DHT22;381;48.770;9.188;2023-11-22T20:55:27;6.50;99.50
796;DHT22;381;48.770;9.188;2023-11-22T21:00:30;6.40;99.90
796;DHT22;381;48.770;9.188;2023-11-22T21:05:32;6.30;99.60
796;DHT22;381;48.770;9.188;2023-11-22T21:10:36;6.30;99.90
796;DHT22;381;48.770;9.188;2023-11-22T21:15:39;6.10;97.30
796;DHT22;381;48.770;9.188;2023-11-22T21:20:41;5.90;98.60
796;DHT22;381;48.770;9.188;2023-11-22T21:25:45;5.70;99.70
796;DHT22;381;48.770;9.188;2023-11-22T21:30:47;5.50;99.10
796;DHT22;381;48.770;9.188;2023-11-22T21:35:49;5.30;99.50
796;DHT22;381;48.770;9.188;2023-11-22T21:40:53;5.10;99.70
796;DHT22;381;48.770;9.188;2023-11-22T21:45:55;4.90;98.70
796;DHT22;381;48.770;9.188;2023-11-22T21:50:58;4.70;99.30
796;DHT22;381;48.770;9.188;2023-11-22T21:56:04;4.60;99.20
796;DHT22;381;48.770;9.188;2023-11-22T22:01:10;4.50;99.00
796;DHT22;381;48.770;9.188;2023-11-22T22:06:13;4.30;99.30
796;DHT22;381;48.770;9.188;2023-11-22T22:11:21;4.20;99.20
796;DHT22;381;48.770;9.188;2023-11-22T22:16:23;4.00;99.30
796;DHT22;381;48.770;9.188;2023-11-22T22:21:26;3.90;99.40
796;DHT22;381;48.770;9.188;2023-11-22T22:26:30;3.80;99.60
796;DHT22;381;48.770;9.188;2023-11-22T22:31:36;3.70;99.80
796;DHT22;381;48.770;9.188;2023-11-22T22:36:38;3.70;99.90
796;DHT22;381;48.770;9.188;2023-11-22T22:41:42;3.60;99.90
796;DHT22;381;48.770;9.188;2023-11-22T22:46:44;3.60;99.90
796;DHT22;381;48.770;9.188;2023-11-22T22:51:47;3.70;99.90
796;DHT22;381;48.770;9.188;2023-11-22T22:56:50;3.70;99.90
796;DHT22;381;48.770;9.188;2023-11-22T23:01:53;3.80;99.90
796;DHT22;381;48.770;9.188;2023-11-22T23:06:57;3.80;99.90
796;DHT22;381;48.770;9.188;2023-11-22T23:12:02;4.00;99.90
796;DHT22;381;48.770;9.188;2023-11-22T23:17:04;4.10;99.90
796;DHT22;381;48.770;9.188;2023-11-22T23:22:07;4.30;99.90
796;DHT22;381;48.770;9.188;2023-11-22T23:27:11;4.40;99.90
796;DHT22;381;48.770;9.188;2023-11-22T23:32:13;4.40;99.90
796;DHT22;381;48.770;9.188;2023-11-22T23:37:16;4.40;99.90
796;DHT22;381;48.770;9.188;2023-11-22T23:42:19;4.50;99.90
796;DHT22;381;48.770;9.188;2023-11-22T23:47:22;4.40;99.90
796;DHT22;381;48.770;9.188;2023-11-22T23:52:24;4.40;99.90
796;DHT22;381;48.770;9.188;2023-11-22T23:57:28;4.30;99.90
